createdAt,value
2019-05-17T00:00:52.895Z,100759.01
2019-05-17T00:01:57.945Z,100756.83
2019-05-17T00:03:03.567Z,100755.50
2019-05-17T00:04:08.564Z,100749.69
2019-05-17T00:05:14.214Z,100754.53
2019-05-17T00:06:19.225Z,100749.89
2019-05-17T00:07:27.139Z,100747.59
2019-05-17T00:08:34.723Z,100743.96
2019-05-17T00:09:38.966Z,100748.80
2019-05-17T00:10:46.398Z,100741.63
2019-05-17T00:11:51.165Z,100739.48
2019-05-17T00:12:56.478Z,100733.30
2019-05-17T00:14:01.883Z,100735.61
2019-05-17T00:15:07.830Z,100737.91
2019-05-17T00:16:13.493Z,100740.24
2019-05-17T00:17:18.534Z,100734.07
2019-05-17T00:18:26.321Z,100734.55
2019-05-17T00:19:30.735Z,100732.25
2019-05-17T00:20:37.412Z,100732.37
2019-05-17T00:21:42.680Z,100731.05
2019-05-17T00:22:48.174Z,100732.37
2019-05-17T00:23:53.365Z,100725.88
2019-05-17T00:24:58.892Z,100725.88
2019-05-17T00:26:03.985Z,100723.22
2019-05-17T00:27:09.473Z,100719.83
2019-05-17T00:28:16.368Z,100714.50
2019-05-17T00:29:23.470Z,100714.14
2019-05-17T00:30:28.445Z,100712.12
2019-05-17T00:31:33.991Z,100716.59
2019-05-17T00:32:39.333Z,100716.75
2019-05-17T00:33:47.055Z,100710.09
2019-05-17T00:34:51.511Z,100708.77
2019-05-17T00:35:57.257Z,100712.76
2019-05-17T00:37:02.228Z,100715.42
2019-05-17T00:38:07.829Z,100706.23
2019-05-17T00:39:12.821Z,100704.41
2019-05-17T00:40:18.541Z,100706.11
2019-05-17T00:41:23.496Z,100706.80
2019-05-17T00:42:29.053Z,100702.44
2019-05-17T00:43:34.052Z,100705.10
2019-05-17T00:44:39.781Z,100706.11
2019-05-17T00:45:46.689Z,100697.75
2019-05-17T00:46:52.397Z,100703.92
2019-05-17T00:47:57.385Z,100700.54
2019-05-17T00:49:03.209Z,100703.36
2019-05-17T00:50:10.881Z,100702.16
2019-05-17T00:51:16.815Z,100705.81
2019-05-17T00:52:21.880Z,100701.47
2019-05-17T00:53:27.348Z,100699.56
2019-05-17T00:54:32.273Z,100703.20
2019-05-17T00:55:38.086Z,100702.51
2019-05-17T00:56:43.086Z,100700.33
2019-05-17T00:57:48.665Z,100700.81
2019-05-17T00:58:53.951Z,100699.27
2019-05-17T00:59:59.493Z,100692.77
2019-05-17T01:01:07.526Z,100699.07
2019-05-17T01:02:11.864Z,100690.36
2019-05-17T01:03:16.849Z,100689.03
2019-05-17T01:04:22.705Z,100686.89
2019-05-17T01:05:27.700Z,100690.87
2019-05-17T01:06:33.254Z,100685.19
2019-05-17T01:07:38.200Z,100683.98
2019-05-17T01:08:43.763Z,100689.95
2019-05-17T01:09:48.990Z,100683.66
2019-05-17T01:10:56.486Z,100683.66
2019-05-17T01:12:01.420Z,100682.33
2019-05-17T01:13:07.155Z,100679.17
2019-05-17T01:14:12.094Z,100677.33
2019-05-17T01:15:18.356Z,100679.66
2019-05-17T01:16:23.281Z,100674.47
2019-05-17T01:17:28.936Z,100673.13
2019-05-17T01:18:36.145Z,100667.81
2019-05-17T01:19:41.258Z,100670.47
2019-05-17T01:20:47.444Z,100673.28
2019-05-17T01:21:53.137Z,100666.27
2019-05-17T01:22:58.433Z,100669.58
2019-05-17T01:24:04.061Z,100668.58
2019-05-17T01:25:09.427Z,100665.91
2019-05-17T01:26:15.221Z,100664.94
2019-05-17T01:27:20.171Z,100661.44
2019-05-17T01:28:26.918Z,100662.12
2019-05-17T01:29:31.958Z,100665.30
2019-05-17T01:30:37.765Z,100663.45
2019-05-17T01:31:42.666Z,100667.97
2019-05-17T01:32:48.458Z,100660.31
2019-05-17T01:33:56.430Z,100656.47
2019-05-17T01:35:07.008Z,100663.45
2019-05-17T01:36:11.379Z,100656.80
2019-05-17T01:37:17.373Z,100658.50
2019-05-17T01:38:22.353Z,100662.12
2019-05-17T01:39:27.841Z,100661.64
2019-05-17T01:40:32.783Z,100654.98
2019-05-17T01:41:38.342Z,100651.84
2019-05-17T01:42:43.261Z,100647.48
2019-05-17T01:43:49.106Z,100650.99
2019-05-17T01:44:54.025Z,100650.99
2019-05-17T01:45:59.572Z,100650.02
2019-05-17T01:47:04.586Z,100650.51
2019-05-17T01:48:10.236Z,100645.67
2019-05-17T01:49:16.501Z,100647.64
2019-05-17T01:50:22.104Z,100650.30
2019-05-17T01:51:27.117Z,100649.61
2019-05-17T01:52:32.613Z,100641.63
2019-05-17T01:53:37.554Z,100646.11
2019-05-17T01:54:43.406Z,100642.96
2019-05-17T01:55:48.323Z,100645.26
2019-05-17T01:56:56.531Z,100646.59
2019-05-17T01:58:01.381Z,100642.23
2019-05-17T02:01:11.031Z,100645.11
2019-05-17T02:02:19.094Z,100639.94
2019-05-17T02:03:26.627Z,100640.42
2019-05-17T02:04:31.721Z,100639.94
2019-05-17T02:05:37.462Z,100634.25
2019-05-17T02:06:43.059Z,100636.43
2019-05-17T02:07:48.139Z,100633.56
2019-05-17T02:08:53.657Z,100628.73
2019-05-17T02:09:58.716Z,100627.76
2019-05-17T02:11:06.648Z,100631.75
2019-05-17T02:12:11.239Z,100626.91
2019-05-17T02:13:16.827Z,100630.06
2019-05-17T02:14:22.169Z,100626.55
2019-05-17T02:15:28.065Z,100625.58
2019-05-17T02:16:33.206Z,100622.72
2019-05-17T02:17:39.189Z,100625.22
2019-05-17T02:18:46.472Z,100619.90
2019-05-17T02:19:51.725Z,100619.54
2019-05-17T02:20:57.150Z,100627.52
2019-05-17T02:22:04.165Z,100627.52
2019-05-17T02:23:09.114Z,100619.90
2019-05-17T02:24:16.790Z,100618.08
2019-05-17T02:25:22.142Z,100619.26
2019-05-17T02:26:27.731Z,100622.56
2019-05-17T02:27:38.237Z,100616.39
2019-05-17T02:28:41.453Z,100615.55
2019-05-17T02:29:46.576Z,100610.22
2019-05-17T02:30:52.997Z,100613.89
2019-05-17T02:31:58.568Z,100617.03
2019-05-17T02:33:04.828Z,100618.00
2019-05-17T02:34:09.866Z,100612.84
2019-05-17T02:35:15.959Z,100612.95
2019-05-17T02:36:22.839Z,100618.05
2019-05-17T02:37:28.190Z,100608.73
2019-05-17T02:38:33.647Z,100621.91
2019-05-17T02:39:57.132Z,100619.25
2019-05-17T02:40:46.748Z,100611.39
2019-05-17T02:41:53.359Z,100617.92
2019-05-17T02:42:58.576Z,100617.56
2019-05-17T02:44:04.321Z,100608.25
2019-05-17T02:45:12.984Z,100602.56
2019-05-17T02:46:17.453Z,100610.67
2019-05-17T02:47:23.165Z,100609.13
2019-05-17T02:48:28.815Z,100607.80
2019-05-17T02:49:33.815Z,100610.47
2019-05-17T02:50:39.501Z,100613.61
2019-05-17T02:51:44.891Z,100612.28
2019-05-17T02:52:52.825Z,100607.95
2019-05-17T02:53:57.475Z,100609.77
2019-05-17T02:55:03.966Z,100611.59
2019-05-17T02:56:13.049Z,100613.41
2019-05-17T02:57:17.251Z,100614.25
2019-05-17T02:58:23.281Z,100616.55
2019-05-17T02:59:29.277Z,100614.89
2019-05-17T03:00:35.171Z,100612.23
2019-05-17T03:01:44.311Z,100613.19
2019-05-17T03:02:47.809Z,100612.34
2019-05-17T03:03:53.315Z,100617.67
2019-05-17T03:04:58.354Z,100616.50
2019-05-17T03:06:04.275Z,100614.80
2019-05-17T03:07:09.283Z,100614.11
2019-05-17T03:08:14.787Z,100614.80
2019-05-17T03:09:22.664Z,100620.13
2019-05-17T03:10:28.935Z,100611.17
2019-05-17T03:11:34.213Z,100614.16
2019-05-17T03:12:39.710Z,100605.49
2019-05-17T03:13:45.717Z,100608.16
2019-05-17T03:14:52.862Z,100612.98
2019-05-17T03:15:58.487Z,100606.19
2019-05-17T03:17:04.060Z,100599.41
2019-05-17T03:18:13.198Z,100604.25
2019-05-17T03:19:17.272Z,100600.25
2019-05-17T03:20:23.207Z,100603.24
2019-05-17T03:21:29.039Z,100595.27
2019-05-17T03:22:34.279Z,100603.61
2019-05-17T03:23:43.239Z,100603.61
2019-05-17T03:24:46.449Z,100600.58
2019-05-17T03:25:52.686Z,100601.91
2019-05-17T03:26:57.876Z,100592.61
2019-05-17T03:28:03.802Z,100588.12
2019-05-17T03:29:09.586Z,100592.96
2019-05-17T03:30:18.292Z,100597.80
2019-05-17T03:31:26.188Z,100594.66
2019-05-17T03:32:36.020Z,100594.66
2019-05-17T03:33:38.904Z,100590.18
2019-05-17T03:34:55.278Z,100590.18
2019-05-17T03:35:57.351Z,100590.99
2019-05-17T03:37:06.512Z,100586.31
2019-05-17T03:38:13.886Z,100587.28
2019-05-17T03:39:18.516Z,100585.63
2019-05-17T03:40:47.451Z,100585.63
2019-05-17T03:41:33.756Z,100587.44
2019-05-17T03:42:37.679Z,100585.75
2019-05-17T03:43:44.356Z,100590.09
2019-05-17T03:44:52.896Z,100590.94
2019-05-17T03:45:57.200Z,100585.95
2019-05-17T03:47:02.526Z,100586.44
2019-05-17T03:48:08.167Z,100585.95
2019-05-17T03:49:13.326Z,100584.30
2019-05-17T03:50:22.486Z,100587.77
2019-05-17T03:51:26.348Z,100590.58
2019-05-17T03:52:33.300Z,100585.38
2019-05-17T03:53:38.589Z,100587.72
2019-05-17T03:54:44.376Z,100584.85
2019-05-17T03:55:49.406Z,100584.85
2019-05-17T03:56:54.998Z,100586.99
2019-05-17T03:58:03.049Z,100590.17
2019-05-17T03:59:07.471Z,100578.20
2019-05-17T04:00:13.594Z,100580.86
2019-05-17T04:01:19.234Z,100578.20
2019-05-17T04:02:24.667Z,100584.00
2019-05-17T04:03:35.059Z,100581.47
2019-05-17T04:04:37.335Z,100576.15
2019-05-17T04:05:43.351Z,100583.77
2019-05-17T04:06:48.653Z,100584.28
2019-05-17T04:07:54.420Z,100572.80
2019-05-17T04:08:59.354Z,100582.44
2019-05-17T04:10:05.836Z,100572.80
2019-05-17T04:11:22.130Z,100571.47
2019-05-17T04:12:18.629Z,100569.14
2019-05-17T04:13:23.871Z,100573.97
2019-05-17T04:14:33.335Z,100582.80
2019-05-17T04:15:37.048Z,100574.45
2019-05-17T04:16:43.106Z,100578.81
2019-05-17T04:17:48.429Z,100573.84
2019-05-17T04:18:54.000Z,100574.21
2019-05-17T04:20:02.959Z,100575.02
2019-05-17T04:21:06.289Z,100572.72
2019-05-17T04:22:13.774Z,100569.58
2019-05-17T04:23:18.662Z,100571.27
2019-05-17T04:24:23.634Z,100564.62
2019-05-17T04:25:29.122Z,100570.27
2019-05-17T04:26:34.431Z,100571.80
2019-05-17T04:27:43.532Z,100572.66
2019-05-17T04:28:47.370Z,100567.69
2019-05-17T04:29:53.429Z,100569.38
2019-05-17T04:30:58.604Z,100570.07
2019-05-17T04:32:04.489Z,100567.77
2019-05-17T04:33:12.788Z,100571.61
2019-05-17T04:34:16.924Z,100566.16
2019-05-17T04:35:23.209Z,100562.17
2019-05-17T04:36:32.176Z,100563.89
2019-05-17T04:37:38.545Z,100561.08
2019-05-17T04:38:43.836Z,100561.44
2019-05-17T04:39:52.260Z,100559.62
2019-05-17T04:40:56.223Z,100559.26
2019-05-17T04:42:03.691Z,100561.92
2019-05-17T04:43:09.471Z,100562.77
2019-05-17T04:44:14.703Z,100557.57
2019-05-17T04:45:23.066Z,100559.26
2019-05-17T04:46:27.651Z,100563.73
2019-05-17T04:47:33.943Z,100553.25
2019-05-17T04:48:38.881Z,100559.02
2019-05-17T04:49:45.949Z,100559.51
2019-05-17T04:50:53.723Z,100558.18
2019-05-17T04:51:59.465Z,100559.51
2019-05-17T04:53:05.253Z,100555.75
2019-05-17T04:54:13.723Z,100556.44
2019-05-17T04:55:17.700Z,100560.66
2019-05-17T04:56:23.259Z,100559.18
2019-05-17T04:57:28.477Z,100557.08
2019-05-17T04:58:34.127Z,100562.77
2019-05-17T04:59:39.212Z,100562.77
2019-05-17T05:00:45.454Z,100558.13
2019-05-17T05:01:53.517Z,100562.48
2019-05-17T05:02:57.708Z,100555.83
2019-05-17T05:04:03.823Z,100556.19
2019-05-17T05:06:08.028Z,100553.92
2019-05-17T05:07:13.995Z,100561.84
2019-05-17T05:08:22.219Z,100554.98
2019-05-17T05:09:26.342Z,100555.83
2019-05-17T05:10:33.864Z,100559.33
2019-05-17T05:11:52.105Z,100560.99
2019-05-17T05:12:46.226Z,100560.02
2019-05-17T05:13:53.137Z,100562.88
2019-05-17T05:14:58.250Z,100563.89
2019-05-17T05:16:03.768Z,100562.20
2019-05-17T05:17:08.694Z,100557.84
2019-05-17T05:18:14.722Z,100556.52
2019-05-17T05:19:22.211Z,100558.20
2019-05-17T05:20:26.950Z,100555.91
2019-05-17T05:21:32.572Z,100559.25
2019-05-17T05:22:38.048Z,100564.22
2019-05-17T05:23:43.317Z,100560.58
2019-05-17T05:24:49.178Z,100560.94
2019-05-17T05:25:54.420Z,100561.98
2019-05-17T05:27:02.446Z,100567.52
2019-05-17T05:28:06.990Z,100566.05
2019-05-17T05:29:12.976Z,100565.53
2019-05-17T05:30:18.775Z,100561.55
2019-05-17T05:31:24.375Z,100567.72
2019-05-17T05:32:31.521Z,100565.21
2019-05-17T05:33:37.452Z,100562.06
2019-05-17T05:34:45.965Z,100563.52
2019-05-17T05:35:51.724Z,100563.16
2019-05-17T05:36:56.966Z,100564.36
2019-05-17T05:38:02.827Z,100559.52
2019-05-17T05:39:08.342Z,100566.66
2019-05-17T05:40:14.123Z,100562.19
2019-05-17T05:41:19.248Z,100564.85
2019-05-17T05:42:25.199Z,100568.36
2019-05-17T05:43:32.667Z,100568.20
2019-05-17T05:44:37.933Z,100566.05
2019-05-17T05:45:43.533Z,100572.19
2019-05-17T05:46:51.386Z,100566.38
2019-05-17T05:47:56.457Z,100570.38
2019-05-17T05:49:02.299Z,100565.89
2019-05-17T05:50:07.736Z,100564.44
2019-05-17T05:51:13.838Z,100566.81
2019-05-17T05:52:21.710Z,100562.17
2019-05-17T05:53:27.001Z,100561.56
2019-05-17T05:54:32.149Z,100558.25
2019-05-17T05:55:37.731Z,100556.28
2019-05-17T05:56:43.002Z,100559.66
2019-05-17T05:57:48.888Z,100560.70
2019-05-17T05:58:54.169Z,100553.04
2019-05-17T06:00:02.036Z,100555.70
2019-05-17T06:01:06.473Z,100554.73
2019-05-17T06:02:12.336Z,100555.45
2019-05-17T06:03:17.632Z,100558.80
2019-05-17T06:04:23.355Z,100561.30
2019-05-17T06:05:29.003Z,100562.02
2019-05-17T06:06:34.486Z,100554.87
2019-05-17T06:07:41.572Z,100565.72
2019-05-17T06:08:46.880Z,100553.93
2019-05-17T06:09:52.022Z,100555.98
2019-05-17T06:10:57.660Z,100551.69
2019-05-17T06:12:02.805Z,100553.70
2019-05-17T06:13:08.547Z,100553.06
2019-05-17T06:14:13.815Z,100556.92
2019-05-17T06:15:21.914Z,100556.77
2019-05-17T06:16:27.345Z,100552.47
2019-05-17T06:17:32.975Z,100549.03
2019-05-17T06:18:37.998Z,100552.73
2019-05-17T06:19:43.726Z,100552.96
2019-05-17T06:20:48.946Z,100556.17
2019-05-17T06:21:54.552Z,100555.66
2019-05-17T06:22:59.885Z,100559.66
2019-05-17T06:24:05.646Z,100550.00
2019-05-17T06:25:15.096Z,100554.00
2019-05-17T06:26:18.589Z,100553.34
2019-05-17T06:27:23.596Z,100552.86
2019-05-17T06:28:31.697Z,100556.98
2019-05-17T06:29:36.144Z,100563.16
2019-05-17T06:30:43.109Z,100559.33
2019-05-17T06:31:48.266Z,100553.28
2019-05-17T06:32:53.807Z,100555.75
2019-05-17T06:33:59.081Z,100562.91
2019-05-17T06:35:05.172Z,100554.42
2019-05-17T06:36:10.604Z,100558.78
2019-05-17T06:37:18.123Z,100551.14
2019-05-17T06:38:23.587Z,100552.80
2019-05-17T06:39:29.090Z,100553.28
2019-05-17T06:40:34.122Z,100552.80
2019-05-17T06:41:41.950Z,100551.83
2019-05-17T06:42:46.655Z,100552.99
2019-05-17T06:43:52.495Z,100548.38
2019-05-17T06:44:58.092Z,100547.73
2019-05-17T06:46:03.947Z,100542.39
2019-05-17T06:47:11.706Z,100539.41
2019-05-17T06:48:16.190Z,100545.77
2019-05-17T06:49:22.486Z,100542.10
2019-05-17T06:50:28.186Z,100537.48
2019-05-17T06:51:33.144Z,100541.48
2019-05-17T06:52:38.747Z,100542.16
2019-05-17T06:53:43.748Z,100542.16
2019-05-17T06:54:49.501Z,100542.16
2019-05-17T06:55:54.881Z,100543.01
2019-05-17T06:57:03.252Z,100543.85
2019-05-17T06:58:07.526Z,100540.53
2019-05-17T06:59:13.027Z,100541.73
2019-05-17T07:00:23.413Z,100536.59
2019-05-17T07:01:26.350Z,100536.23
2019-05-17T07:02:31.431Z,100539.26
2019-05-17T07:03:36.889Z,100534.91
2019-05-17T07:04:42.511Z,100536.59
2019-05-17T07:05:50.259Z,100538.28
2019-05-17T07:07:13.054Z,100534.77
2019-05-17T07:08:20.046Z,100536.59
2019-05-17T07:09:25.293Z,100537.93
2019-05-17T07:10:30.313Z,100541.08
2019-05-17T07:11:35.787Z,100534.58
2019-05-17T07:12:55.015Z,100534.06
2019-05-17T07:13:50.980Z,100540.23
2019-05-17T07:14:58.351Z,100540.89
2019-05-17T07:16:03.421Z,100534.84
2019-05-17T07:17:09.816Z,100529.88
2019-05-17T07:18:15.603Z,100530.23
2019-05-17T07:19:20.645Z,100532.41
2019-05-17T07:20:26.250Z,100530.06
2019-05-17T07:21:31.919Z,100533.58
2019-05-17T07:22:40.455Z,100533.44
2019-05-17T07:23:44.545Z,100531.45
2019-05-17T07:24:50.487Z,100528.66
2019-05-17T07:25:55.466Z,100532.00
2019-05-17T07:27:01.160Z,100528.69
2019-05-17T07:28:06.384Z,100526.38
2019-05-17T07:29:12.361Z,100528.06
2019-05-17T07:30:19.510Z,100529.39
2019-05-17T07:31:25.091Z,100526.38
2019-05-17T07:32:30.469Z,100525.69
2019-05-17T07:33:36.305Z,100526.18
2019-05-17T07:34:41.319Z,100526.67
2019-05-17T07:35:47.159Z,100522.31
2019-05-17T07:36:52.183Z,100524.30
2019-05-17T07:37:59.562Z,100524.79
2019-05-17T07:39:05.874Z,100525.77
2019-05-17T07:40:11.754Z,100521.58
2019-05-17T07:41:16.857Z,100526.06
2019-05-17T07:42:23.048Z,100522.59
2019-05-17T07:43:29.789Z,100519.27
2019-05-17T07:44:35.624Z,100524.30
2019-05-17T07:45:40.822Z,100520.98
2019-05-17T07:46:46.456Z,100518.02
2019-05-17T07:47:51.752Z,100520.55
2019-05-17T07:49:00.206Z,100521.23
2019-05-17T07:50:05.104Z,100512.74
2019-05-17T07:51:10.820Z,100513.09
2019-05-17T07:52:16.193Z,100516.61
2019-05-17T07:53:21.850Z,100508.83
2019-05-17T07:54:26.831Z,100516.17
2019-05-17T07:55:32.411Z,100509.20
2019-05-17T07:56:40.220Z,100503.25
2019-05-17T07:57:45.587Z,100510.59
2019-05-17T07:58:50.569Z,100500.64
2019-05-17T07:59:56.107Z,100504.34
2019-05-17T08:01:02.089Z,100499.19
2019-05-17T08:02:10.465Z,100502.53
2019-05-17T08:03:14.986Z,100496.09
2019-05-17T08:04:20.645Z,100496.58
2019-05-17T08:05:25.872Z,100492.89
2019-05-17T08:06:31.398Z,100490.23
2019-05-17T08:07:36.408Z,100492.58
2019-05-17T08:08:42.053Z,100498.05
2019-05-17T08:09:47.761Z,100489.02
2019-05-17T08:10:53.793Z,100488.17
2019-05-17T08:11:59.731Z,100487.19
2019-05-17T08:13:05.815Z,100488.03
2019-05-17T08:14:10.832Z,100489.69
2019-05-17T08:15:16.728Z,100487.73
2019-05-17T08:16:21.674Z,100484.08
2019-05-17T08:17:27.219Z,100486.09
2019-05-17T08:18:32.322Z,100485.11
2019-05-17T08:19:40.254Z,100484.59
2019-05-17T08:20:45.257Z,100480.94
2019-05-17T08:21:50.861Z,100480.99
2019-05-17T08:22:55.957Z,100481.53
2019-05-17T08:24:01.777Z,100478.20
2019-05-17T08:25:07.161Z,100479.23
2019-05-17T08:26:13.102Z,100477.27
2019-05-17T08:27:20.075Z,100475.95
2019-05-17T08:28:27.240Z,100475.50
2019-05-17T08:29:32.262Z,100471.19
2019-05-17T08:30:40.548Z,100470.03
2019-05-17T08:31:44.804Z,100471.06
2019-05-17T08:32:50.701Z,100469.77
2019-05-17T08:33:55.697Z,100465.31
2019-05-17T08:35:01.225Z,100464.30
2019-05-17T08:36:06.240Z,100467.67
2019-05-17T08:37:12.304Z,100461.84
2019-05-17T08:38:19.570Z,100463.85
2019-05-17T08:39:24.933Z,100467.36
2019-05-17T08:40:30.673Z,100463.85
2019-05-17T08:41:36.306Z,100461.18
2019-05-17T08:42:41.678Z,100466.52
2019-05-17T08:43:47.347Z,100464.02
2019-05-17T08:44:52.514Z,100469.50
2019-05-17T08:46:01.605Z,100461.63
2019-05-17T08:47:05.195Z,100464.02
2019-05-17T08:48:10.800Z,100462.87
2019-05-17T08:49:15.842Z,100462.70
2019-05-17T08:50:22.188Z,100462.55
2019-05-17T08:51:30.306Z,100462.38
2019-05-17T08:52:35.730Z,100458.91
2019-05-17T08:53:40.774Z,100460.10
2019-05-17T08:54:46.711Z,100456.77
2019-05-17T08:55:51.754Z,100458.95
2019-05-17T08:56:57.334Z,100456.63
2019-05-17T08:58:02.599Z,100458.63
2019-05-17T08:59:09.632Z,100459.16
2019-05-17T09:00:15.081Z,100461.52
2019-05-17T09:01:20.774Z,100456.03
2019-05-17T09:02:26.047Z,100454.70
2019-05-17T09:03:31.547Z,100455.38
2019-05-17T09:04:36.503Z,100453.72
2019-05-17T09:05:42.123Z,100453.09
2019-05-17T09:06:47.103Z,100457.94
2019-05-17T09:07:52.696Z,100452.77
2019-05-17T09:08:57.772Z,100446.76
2019-05-17T09:10:03.726Z,100454.77
2019-05-17T09:11:09.892Z,100452.45
2019-05-17T09:12:15.794Z,100450.09
2019-05-17T09:13:20.822Z,100454.45
2019-05-17T09:14:29.345Z,100450.09
2019-05-17T09:15:34.490Z,100451.11
2019-05-17T09:16:40.319Z,100451.61
2019-05-17T09:17:45.350Z,100451.95
2019-05-17T09:18:50.948Z,100446.09
2019-05-17T09:19:55.971Z,100446.62
2019-05-17T09:21:01.619Z,100441.28
2019-05-17T09:22:06.608Z,100444.75
2019-05-17T09:23:12.640Z,100442.61
2019-05-17T09:24:19.488Z,100444.27
2019-05-17T09:25:24.860Z,100444.27
2019-05-17T09:26:30.119Z,100445.31
2019-05-17T09:27:36.176Z,100441.52
2019-05-17T09:28:41.110Z,100442.18
2019-05-17T09:29:46.706Z,100438.00
2019-05-17T09:30:51.746Z,100440.35
2019-05-17T09:31:59.802Z,100441.34
2019-05-17T09:33:04.207Z,100435.50
2019-05-17T09:34:10.012Z,100439.52
2019-05-17T09:35:15.443Z,100444.19
2019-05-17T09:36:21.016Z,100441.20
2019-05-17T09:37:26.295Z,100438.84
2019-05-17T09:38:31.854Z,100440.67
2019-05-17T09:39:36.895Z,100439.34
2019-05-17T09:40:42.430Z,100436.31
2019-05-17T09:41:47.445Z,100436.45
2019-05-17T09:42:53.148Z,100433.93
2019-05-17T09:44:09.566Z,100434.91
2019-05-17T09:45:06.062Z,100433.75
2019-05-17T09:46:11.189Z,100425.39
2019-05-17T09:47:17.022Z,100428.41
2019-05-17T09:48:22.134Z,100432.73
2019-05-17T09:49:29.917Z,100429.43
2019-05-17T09:50:35.005Z,100427.11
2019-05-17T09:51:40.642Z,100424.78
2019-05-17T09:52:45.950Z,100425.98
2019-05-17T09:53:51.450Z,100421.97
2019-05-17T09:54:56.407Z,100417.80
2019-05-17T09:56:02.176Z,100422.64
2019-05-17T09:57:09.763Z,100422.50
2019-05-17T09:58:15.203Z,100421.66
2019-05-17T09:59:20.449Z,100419.30
2019-05-17T10:00:29.556Z,100417.77
2019-05-17T10:01:34.240Z,100419.09
2019-05-17T10:02:40.410Z,100421.28
2019-05-17T10:03:45.935Z,100421.62
2019-05-17T10:04:51.827Z,100423.80
2019-05-17T10:05:56.847Z,100418.11
2019-05-17T10:07:02.428Z,100415.79
2019-05-17T10:08:07.822Z,100416.78
2019-05-17T10:09:14.263Z,100417.80
2019-05-17T10:10:20.235Z,100414.62
2019-05-17T10:11:26.835Z,100418.98
2019-05-17T10:12:31.862Z,100415.96
2019-05-17T10:13:37.438Z,100418.46
2019-05-17T10:14:42.497Z,100422.12
2019-05-17T10:15:50.009Z,100414.39
2019-05-17T10:16:55.135Z,100421.73
2019-05-17T10:18:00.805Z,100413.03
2019-05-17T10:19:05.869Z,100425.71
2019-05-17T10:20:12.446Z,100415.03
2019-05-17T10:21:19.700Z,100421.21
2019-05-17T10:22:24.696Z,100417.70
2019-05-17T10:23:30.047Z,100415.03
2019-05-17T10:24:41.562Z,100422.69
2019-05-17T10:25:42.852Z,100420.86
2019-05-17T10:26:49.886Z,100414.85
2019-05-17T10:27:55.022Z,100414.05
2019-05-17T10:29:00.715Z,100414.85
2019-05-17T10:30:06.270Z,100410.70
2019-05-17T10:31:12.268Z,100408.38
2019-05-17T10:32:20.298Z,100411.38
2019-05-17T10:33:24.910Z,100408.70
2019-05-17T10:34:29.972Z,100411.05
2019-05-17T10:35:35.605Z,100406.70
2019-05-17T10:36:40.759Z,100410.36
2019-05-17T10:37:46.306Z,100415.06
2019-05-17T10:38:51.757Z,100411.20
2019-05-17T10:39:57.407Z,100409.02
2019-05-17T10:41:02.738Z,100412.04
2019-05-17T10:42:10.017Z,100412.70
2019-05-17T10:43:15.559Z,100411.52
2019-05-17T10:44:21.093Z,100409.83
2019-05-17T10:45:26.204Z,100407.97
2019-05-17T10:46:31.875Z,100417.00
2019-05-17T10:47:39.462Z,100409.30
2019-05-17T10:48:44.149Z,100408.61
2019-05-17T10:49:49.694Z,100410.95
2019-05-17T10:50:55.404Z,100407.59
2019-05-17T10:52:00.428Z,100410.92
2019-05-17T10:53:06.104Z,100411.06
2019-05-17T10:54:11.043Z,100409.91
2019-05-17T10:55:16.755Z,100410.55
2019-05-17T10:56:23.637Z,100410.23
2019-05-17T10:57:30.405Z,100416.55
2019-05-17T10:59:39.706Z,100413.20
2019-05-17T11:00:44.906Z,100418.55
2019-05-17T11:01:50.730Z,100412.19
2019-05-17T11:02:55.848Z,100412.05
2019-05-17T11:04:01.211Z,100410.23
2019-05-17T11:05:06.544Z,100415.25
2019-05-17T11:06:11.987Z,100413.42
2019-05-17T11:07:19.778Z,100414.23
2019-05-17T11:08:24.348Z,100408.89
2019-05-17T11:09:31.169Z,100417.74
2019-05-17T11:10:39.192Z,100414.93
2019-05-17T11:11:43.912Z,100414.27
2019-05-17T11:12:49.667Z,100412.93
2019-05-17T11:13:54.877Z,100410.61
2019-05-17T11:15:11.080Z,100420.63
2019-05-17T11:16:07.816Z,100415.98
2019-05-17T11:17:13.725Z,100405.48
2019-05-17T11:18:19.065Z,100420.69
2019-05-17T11:19:24.461Z,100413.20
2019-05-17T11:20:30.026Z,100408.70
2019-05-17T11:21:35.594Z,100413.87
2019-05-17T11:22:41.220Z,100410.36
2019-05-17T11:23:46.733Z,100412.88
2019-05-17T11:24:52.147Z,100414.36
2019-05-17T11:25:57.850Z,100413.52
2019-05-17T11:27:03.113Z,100416.86
2019-05-17T11:28:08.649Z,100418.02
2019-05-17T11:29:13.962Z,100418.16
2019-05-17T11:30:19.654Z,100416.83
2019-05-17T11:31:24.864Z,100415.98
2019-05-17T11:32:30.532Z,100422.83
2019-05-17T11:33:36.352Z,100422.66
2019-05-17T11:34:41.716Z,100421.33
2019-05-17T11:35:46.828Z,100421.33
2019-05-17T11:36:52.463Z,100417.31
2019-05-17T11:37:58.095Z,100423.99
2019-05-17T11:39:03.997Z,100421.81
2019-05-17T11:40:09.683Z,100423.99
2019-05-17T11:41:21.122Z,100424.31
2019-05-17T11:42:22.150Z,100421.33
2019-05-17T11:43:27.587Z,100423.99
2019-05-17T11:44:32.755Z,100415.98
2019-05-17T11:45:38.180Z,100419.98
2019-05-17T11:46:43.661Z,100422.98
2019-05-17T11:47:49.114Z,100417.64
2019-05-17T11:48:54.300Z,100415.66
2019-05-17T11:49:59.625Z,100418.66
2019-05-17T11:51:04.935Z,100414.50
2019-05-17T11:52:10.602Z,100418.69
2019-05-17T11:53:16.171Z,100415.38
2019-05-17T11:54:21.879Z,100419.20
2019-05-17T11:55:27.154Z,100411.05
2019-05-17T11:56:32.644Z,100409.89
2019-05-17T11:57:38.049Z,100409.89
2019-05-17T11:58:43.502Z,100414.10
2019-05-17T11:59:48.669Z,100413.78
2019-05-17T12:00:54.100Z,100414.80
2019-05-17T12:01:59.336Z,100408.15
2019-05-17T12:03:04.786Z,100409.16
2019-05-17T12:04:10.004Z,100406.17
2019-05-17T12:05:15.891Z,100409.53
2019-05-17T12:06:21.225Z,100405.55
2019-05-17T12:07:27.050Z,100408.39
2019-05-17T12:08:32.474Z,100407.26
2019-05-17T12:09:38.509Z,100410.10
2019-05-17T12:10:43.979Z,100413.11
2019-05-17T12:11:49.568Z,100404.95
2019-05-17T12:12:55.141Z,100405.96
2019-05-17T12:14:00.482Z,100404.30
2019-05-17T12:15:06.495Z,100415.83
2019-05-17T12:16:11.946Z,100406.11
2019-05-17T12:17:17.346Z,100409.59
2019-05-17T12:18:22.709Z,100405.91
2019-05-17T12:19:27.904Z,100405.25
2019-05-17T12:20:33.598Z,100406.73
2019-05-17T12:21:39.052Z,100406.07
2019-05-17T12:22:44.788Z,100403.05
2019-05-17T12:23:50.284Z,100400.06
2019-05-17T12:24:55.790Z,100398.87
2019-05-17T12:26:00.993Z,100409.21
2019-05-17T12:27:06.435Z,100404.89
2019-05-17T12:28:11.659Z,100405.73
2019-05-17T12:29:17.183Z,100401.20
2019-05-17T12:30:22.477Z,100403.86
2019-05-17T12:31:27.939Z,100403.86
2019-05-17T12:32:33.488Z,100398.03
2019-05-17T12:33:38.960Z,100401.89
2019-05-17T12:34:44.308Z,100400.87
2019-05-17T12:35:49.648Z,100402.73